sensor_id;sensor_type;location;lat;lon;timestamp;temperature;humidity
1590;DHT22;788;48.720;9.158;2022-09-03T05:14:44;16.90;99.90
1590;DHT22;788;48.720;9.158;2022-09-03T05:17:11;16.90;99.90
1590;DHT22;788;48.720;9.158;2022-09-03T05:19:37;16.90;99.90
1590;DHT22;788;48.720;9.158;2022-09-03T05:22:04;17.00;99.90
1590;DHT22;788;48.720;9.158;2022-09-03T05:24:32;17.10;99.90
1590;DHT22;788;48.720;9.158;2022-09-03T05:26:59;17.10;99.90
1590;DHT22;788;48.720;9.158;2022-09-03T05:29:26;17.10;99.90
1590;DHT22;788;48.720;9.158;2022-09-03T05:31:54;17.20;99.90
1590;DHT22;788;48.720;9.158;2022-09-03T05:34:21;17.30;99.90
1590;DHT22;788;48.720;9.158;2022-09-03T05:36:48;17.30;99.90
1590;DHT22;788;48.720;9.158;2022-09-03T05:39:15;17.30;99.90
1590;DHT22;788;48.720;9.158;2022-09-03T05:41:41;17.30;99.90
1590;DHT22;788;48.720;9.158;2022-09-03T05:44:08;17.30;99.90
1590;DHT22;788;48.720;9.158;2022-09-03T05:46:35;17.30;99.90
1590;DHT22;788;48.720;9.158;2022-09-03T05:49:05;17.30;99.90
1590;DHT22;788;48.720;9.158;2022-09-03T05:54:53;17.30;99.90
1590;DHT22;788;48.720;9.158;2022-09-03T06:21:45;17.90;99.90
1590;DHT22;788;48.720;9.158;2022-09-03T06:24:16;18.00;99.90
1590;DHT22;788;48.720;9.158;2022-09-03T06:26:43;18.10;99.90
1590;DHT22;788;48.720;9.158;2022-09-03T06:29:11;18.10;99.90
1590;DHT22;788;48.720;9.158;2022-09-03T06:31:39;18.20;99.90
1590;DHT22;788;48.720;9.158;2022-09-03T06:34:05;18.30;99.90
1590;DHT22;788;48.720;9.158;2022-09-03T06:36:32;18.40;99.90
1590;DHT22;788;48.720;9.158;2022-09-03T06:39:01;18.40;99.90
1590;DHT22;788;48.720;9.158;2022-09-03T06:41:29;18.50;99.90
1590;DHT22;788;48.720;9.158;2022-09-03T06:43:59;18.50;99.90
1590;DHT22;788;48.720;9.158;2022-09-03T06:46:26;18.60;99.90
1590;DHT22;788;48.720;9.158;2022-09-03T06:48:53;18.60;99.90
1590;DHT22;788;48.720;9.158;2022-09-03T06:51:21;18.70;99.90
1590;DHT22;788;48.720;9.158;2022-09-03T06:53:50;18.80;99.90
1590;DHT22;788;48.720;9.158;2022-09-03T06:56:20;18.90;99.90
1590;DHT22;788;48.720;9.158;2022-09-03T06:58:52;18.90;99.90
1590;DHT22;788;48.720;9.158;2022-09-03T07:01:21;19.00;99.90
1590;DHT22;788;48.720;9.158;2022-09-03T07:03:52;19.10;99.90
1590;DHT22;788;48.720;9.158;2022-09-03T07:06:22;19.20;99.90
1590;DHT22;788;48.720;9.158;2022-09-03T07:08:49;19.30;99.90
1590;DHT22;788;48.720;9.158;2022-09-03T07:11:19;19.40;99.90
1590;DHT22;788;48.720;9.158;2022-09-03T07:13:49;19.50;99.90
1590;DHT22;788;48.720;9.158;2022-09-03T07:16:17;19.60;99.90
1590;DHT22;788;48.720;9.158;2022-09-03T07:18:44;19.70;99.90
1590;DHT22;788;48.720;9.158;2022-09-03T07:21:13;19.80;99.90
1590;DHT22;788;48.720;9.158;2022-09-03T07:23:40;19.80;99.90
1590;DHT22;788;48.720;9.158;2022-09-03T07:26:08;19.80;99.90
1590;DHT22;788;48.720;9.158;2022-09-03T07:28:40;19.80;99.90
1590;DHT22;788;48.720;9.158;2022-09-03T07:31:08;19.90;99.90
1590;DHT22;788;48.720;9.158;2022-09-03T07:33:36;19.90;99.90
1590;DHT22;788;48.720;9.158;2022-09-03T07:36:04;19.90;99.90
1590;DHT22;788;48.720;9.158;2022-09-03T07:38:32;19.90;99.90
1590;DHT22;788;48.720;9.158;2022-09-03T07:40:59;19.90;99.90
1590;DHT22;788;48.720;9.158;2022-09-03T07:43:26;19.90;99.90
1590;DHT22;788;48.720;9.158;2022-09-03T07:45:55;20.00;99.90
1590;DHT22;788;48.720;9.158;2022-09-03T07:48:22;20.00;99.90
1590;DHT22;788;48.720;9.158;2022-09-03T07:50:49;20.10;99.90
1590;DHT22;788;48.720;9.158;2022-09-03T07:53:16;20.20;99.90
1590;DHT22;788;48.720;9.158;2022-09-03T07:55:45;20.40;99.90
1590;DHT22;788;48.720;9.158;2022-09-03T07:58:12;20.50;99.90
1590;DHT22;788;48.720;9.158;2022-09-03T08:00:39;20.60;99.90
1590;DHT22;788;48.720;9.158;2022-09-03T08:03:08;20.80;99.90
1590;DHT22;788;48.720;9.158;2022-09-03T08:05:35;21.00;99.90
1590;DHT22;788;48.720;9.158;2022-09-03T08:08:02;21.20;99.90
1590;DHT22;788;48.720;9.158;2022-09-03T08:10:30;21.40;99.90
1590;DHT22;788;48.720;9.158;2022-09-03T08:12:57;21.50;99.80
1590;DHT22;788;48.720;9.158;2022-09-03T08:15:24;21.70;99.70
1590;DHT22;788;48.720;9.158;2022-09-03T08:17:51;21.90;99.20
1590;DHT22;788;48.720;9.158;2022-09-03T08:20:19;22.10;98.30
1590;DHT22;788;48.720;9.158;2022-09-03T08:22:47;22.20;98.30
1590;DHT22;788;48.720;9.158;2022-09-03T08:25:14;22.20;98.00
1590;DHT22;788;48.720;9.158;2022-09-03T08:27:40;22.30;97.90
1590;DHT22;788;48.720;9.158;2022-09-03T08:30:08;22.40;98.00
1590;DHT22;788;48.720;9.158;2022-09-03T08:32:36;22.50;98.10
1590;DHT22;788;48.720;9.158;2022-09-03T08:35:04;22.50;97.90
1590;DHT22;788;48.720;9.158;2022-09-03T08:37:33;22.60;98.20
1590;DHT22;788;48.720;9.158;2022-09-03T08:39:59;22.60;98.40
1590;DHT22;788;48.720;9.158;2022-09-03T08:42:36;22.80;97.80
1590;DHT22;788;48.720;9.158;2022-09-03T08:45:06;22.80;97.60
1590;DHT22;788;48.720;9.158;2022-09-03T08:47:39;22.80;97.30
1590;DHT22;788;48.720;9.158;2022-09-03T08:50:10;22.70;97.80
1590;DHT22;788;48.720;9.158;2022-09-03T08:52:44;22.60;97.80
1590;DHT22;788;48.720;9.158;2022-09-03T08:55:19;22.70;97.90
1590;DHT22;788;48.720;9.158;2022-09-03T08:57:49;22.90;97.60
1590;DHT22;788;48.720;9.158;2022-09-03T09:00:17;23.10;97.80
1590;DHT22;788;48.720;9.158;2022-09-03T09:02:55;23.30;98.10
1590;DHT22;788;48.720;9.158;2022-09-03T09:05:36;23.60;98.10
1590;DHT22;788;48.720;9.158;2022-09-03T09:08:13;23.70;97.20
1590;DHT22;788;48.720;9.158;2022-09-03T09:10:46;23.90;96.90
1590;DHT22;788;48.720;9.158;2022-09-03T09:13:21;24.10;96.80
1590;DHT22;788;48.720;9.158;2022-09-03T09:15:53;24.20;95.80
1590;DHT22;788;48.720;9.158;2022-09-03T09:18:32;24.20;95.30
1590;DHT22;788;48.720;9.158;2022-09-03T09:21:07;24.20;95.30
1590;DHT22;788;48.720;9.158;2022-09-03T09:23:40;24.20;95.20
1590;DHT22;788;48.720;9.158;2022-09-03T09:26:12;24.20;95.70
1590;DHT22;788;48.720;9.158;2022-09-03T09:28:39;24.20;96.00
1590;DHT22;788;48.720;9.158;2022-09-03T09:31:11;24.20;96.40
1590;DHT22;788;48.720;9.158;2022-09-03T09:33:40;24.30;95.90
1590;DHT22;788;48.720;9.158;2022-09-03T09:36:09;24.50;96.10
1590;DHT22;788;48.720;9.158;2022-09-03T09:38:39;24.70;96.30
1590;DHT22;788;48.720;9.158;2022-09-03T09:41:10;24.90;94.60
1590;DHT22;788;48.720;9.158;2022-09-03T09:43:37;25.00;93.80
1590;DHT22;788;48.720;9.158;2022-09-03T09:46:11;24.80;93.60
1590;DHT22;788;48.720;9.158;2022-09-03T09:48:45;24.90;93.50
1590;DHT22;788;48.720;9.158;2022-09-03T09:51:18;24.80;92.90
1590;DHT22;788;48.720;9.158;2022-09-03T09:53:48;24.80;93.20
1590;DHT22;788;48.720;9.158;2022-09-03T09:56:25;24.80;93.00
1590;DHT22;788;48.720;9.158;2022-09-03T09:59:02;24.80;93.60
1590;DHT22;788;48.720;9.158;2022-09-03T10:01:29;24.80;93.10
1590;DHT22;788;48.720;9.158;2022-09-03T10:03:58;24.90;92.50
1590;DHT22;788;48.720;9.158;2022-09-03T10:06:26;24.80;92.70
1590;DHT22;788;48.720;9.158;2022-09-03T10:09:20;24.80;93.00
1590;DHT22;788;48.720;9.158;2022-09-03T10:11:53;24.80;92.80
1590;DHT22;788;48.720;9.158;2022-09-03T10:14:26;24.60;92.70
1590;DHT22;788;48.720;9.158;2022-09-03T10:17:04;24.60;92.60
1590;DHT22;788;48.720;9.158;2022-09-03T10:19:39;24.40;92.60
1590;DHT22;788;48.720;9.158;2022-09-03T10:22:42;24.40;93.00
1590;DHT22;788;48.720;9.158;2022-09-03T10:25:13;24.30;92.80
1590;DHT22;788;48.720;9.158;2022-09-03T10:27:41;24.10;93.00
1590;DHT22;788;48.720;9.158;2022-09-03T10:30:09;24.10;93.20
1590;DHT22;788;48.720;9.158;2022-09-03T10:32:41;24.10;93.10
1590;DHT22;788;48.720;9.158;2022-09-03T10:35:18;24.10;93.20
1590;DHT22;788;48.720;9.158;2022-09-03T10:37:52;24.50;93.40
1590;DHT22;788;48.720;9.158;2022-09-03T10:40:27;24.80;92.80
1590;DHT22;788;48.720;9.158;2022-09-03T10:43:18;25.10;92.40
1590;DHT22;788;48.720;9.158;2022-09-03T10:45:57;25.20;91.00
1590;DHT22;788;48.720;9.158;2022-09-03T10:48:51;25.30;91.40
1590;DHT22;788;48.720;9.158;2022-09-03T10:51:25;25.40;91.10
1590;DHT22;788;48.720;9.158;2022-09-03T10:54:18;25.40;91.00
1590;DHT22;788;48.720;9.158;2022-09-03T10:56:56;25.50;90.80
1590;DHT22;788;48.720;9.158;2022-09-03T10:59:33;25.50;90.80
1590;DHT22;788;48.720;9.158;2022-09-03T11:02:14;25.70;91.20
1590;DHT22;788;48.720;9.158;2022-09-03T11:04:50;25.80;90.80
1590;DHT22;788;48.720;9.158;2022-09-03T11:07:20;26.00;90.60
1590;DHT22;788;48.720;9.158;2022-09-03T11:09:51;26.10;89.50
1590;DHT22;788;48.720;9.158;2022-09-03T11:12:25;26.10;88.70
1590;DHT22;788;48.720;9.158;2022-09-03T11:14:58;26.20;90.10
1590;DHT22;788;48.720;9.158;2022-09-03T11:17:31;26.20;89.90
1590;DHT22;788;48.720;9.158;2022-09-03T11:20:10;26.20;88.70
1590;DHT22;788;48.720;9.158;2022-09-03T11:22:38;25.90;87.30
1590;DHT22;788;48.720;9.158;2022-09-03T11:25:10;25.90;89.10
1590;DHT22;788;48.720;9.158;2022-09-03T11:27:53;25.90;89.50
1590;DHT22;788;48.720;9.158;2022-09-03T11:30:23;25.80;90.20
1590;DHT22;788;48.720;9.158;2022-09-03T11:32:54;25.70;90.20
1590;DHT22;788;48.720;9.158;2022-09-03T11:35:27;25.70;90.40
1590;DHT22;788;48.720;9.158;2022-09-03T11:37:58;25.60;90.60
1590;DHT22;788;48.720;9.158;2022-09-03T11:40:31;25.50;90.50
1590;DHT22;788;48.720;9.158;2022-09-03T11:43:08;25.50;90.70
1590;DHT22;788;48.720;9.158;2022-09-03T11:45:37;25.40;90.90
1590;DHT22;788;48.720;9.158;2022-09-03T11:48:18;25.30;91.20
1590;DHT22;788;48.720;9.158;2022-09-03T11:50:55;25.10;91.50
1590;DHT22;788;48.720;9.158;2022-09-03T11:53:24;25.00;92.10
1590;DHT22;788;48.720;9.158;2022-09-03T11:55:57;24.90;93.00
1590;DHT22;788;48.720;9.158;2022-09-03T11:58:29;24.70;94.00
1590;DHT22;788;48.720;9.158;2022-09-03T12:00:57;24.60;94.70
1590;DHT22;788;48.720;9.158;2022-09-03T12:03:28;24.20;95.30
1590;DHT22;788;48.720;9.158;2022-09-03T12:12:07;23.40;98.70
1590;DHT22;788;48.720;9.158;2022-09-03T12:14:47;23.20;99.90
1590;DHT22;788;48.720;9.158;2022-09-03T12:17:26;23.00;99.90
1590;DHT22;788;48.720;9.158;2022-09-03T12:19:57;22.70;99.90
1590;DHT22;788;48.720;9.158;2022-09-03T12:22:25;22.00;99.90
1590;DHT22;788;48.720;9.158;2022-09-03T12:24:53;21.50;99.90
1590;DHT22;788;48.720;9.158;2022-09-03T12:27:22;20.90;99.90
1590;DHT22;788;48.720;9.158;2022-09-03T12:29:57;20.30;99.90
1590;DHT22;788;48.720;9.158;2022-09-03T12:32:26;19.90;99.90
1590;DHT22;788;48.720;9.158;2022-09-03T12:34:57;19.50;99.90
1590;DHT22;788;48.720;9.158;2022-09-03T12:37:25;19.20;99.90
1590;DHT22;788;48.720;9.158;2022-09-03T12:39:53;18.90;99.90
1590;DHT22;788;48.720;9.158;2022-09-03T12:42:25;18.60;99.90
1590;DHT22;788;48.720;9.158;2022-09-03T12:44:54;18.40;99.90
1590;DHT22;788;48.720;9.158;2022-09-03T12:47:22;18.40;99.90
1590;DHT22;788;48.720;9.158;2022-09-03T12:49:52;18.40;99.90
1590;DHT22;788;48.720;9.158;2022-09-03T13:21:17;17.90;99.90
1590;DHT22;788;48.720;9.158;2022-09-03T13:26:17;18.30;99.90
1590;DHT22;788;48.720;9.158;2022-09-03T13:32:35;18.60;99.90
1590;DHT22;788;48.720;9.158;2022-09-03T13:43:00;19.80;99.90
1590;DHT22;788;48.720;9.158;2022-09-03T13:48:49;20.20;99.90
1590;DHT22;788;48.720;9.158;2022-09-03T14:14:36;23.80;99.90
1590;DHT22;788;48.720;9.158;2022-09-03T14:17:11;24.50;99.90
1590;DHT22;788;48.720;9.158;2022-09-03T14:19:44;25.00;99.90
1590;DHT22;788;48.720;9.158;2022-09-03T14:22:15;25.30;99.90
1590;DHT22;788;48.720;9.158;2022-09-03T14:24:46;25.70;99.90
1590;DHT22;788;48.720;9.158;2022-09-03T14:27:22;26.00;99.90
1590;DHT22;788;48.720;9.158;2022-09-03T14:29:53;26.10;99.60
1590;DHT22;788;48.720;9.158;2022-09-03T14:32:28;26.40;99.90
1590;DHT22;788;48.720;9.158;2022-09-03T14:35:13;26.90;99.90
1590;DHT22;788;48.720;9.158;2022-09-03T14:37:57;27.00;97.60
1590;DHT22;788;48.720;9.158;2022-09-03T14:40:30;26.90;97.10
1590;DHT22;788;48.720;9.158;2022-09-03T14:43:23;26.60;96.10
1590;DHT22;788;48.720;9.158;2022-09-03T14:46:14;26.20;96.20
1590;DHT22;788;48.720;9.158;2022-09-03T14:49:03;25.80;98.10
1590;DHT22;788;48.720;9.158;2022-09-03T14:51:48;25.70;98.70
1590;DHT22;788;48.720;9.158;2022-09-03T14:54:33;25.90;99.50
1590;DHT22;788;48.720;9.158;2022-09-03T14:57:15;26.20;99.90
1590;DHT22;788;48.720;9.158;2022-09-03T14:59:59;26.70;99.40
1590;DHT22;788;48.720;9.158;2022-09-03T15:02:57;27.40;99.90
1590;DHT22;788;48.720;9.158;2022-09-03T15:05:40;28.20;99.90
1590;DHT22;788;48.720;9.158;2022-09-03T15:08:12;29.10;97.30
1590;DHT22;788;48.720;9.158;2022-09-03T15:10:44;29.60;94.90
1590;DHT22;788;48.720;9.158;2022-09-03T15:13:16;29.60;92.50
1590;DHT22;788;48.720;9.158;2022-09-03T15:15:58;29.40;93.10
1590;DHT22;788;48.720;9.158;2022-09-03T15:18:44;29.40;92.50
1590;DHT22;788;48.720;9.158;2022-09-03T15:21:19;29.30;92.90
1590;DHT22;788;48.720;9.158;2022-09-03T15:23:58;29.10;91.60
1590;DHT22;788;48.720;9.158;2022-09-03T15:26:41;28.80;91.70
1590;DHT22;788;48.720;9.158;2022-09-03T15:29:29;28.20;90.80
1590;DHT22;788;48.720;9.158;2022-09-03T15:32:06;27.60;92.20
1590;DHT22;788;48.720;9.158;2022-09-03T15:34:45;27.00;93.40
1590;DHT22;788;48.720;9.158;2022-09-03T15:37:22;26.60;93.90
1590;DHT22;788;48.720;9.158;2022-09-03T15:40:00;26.30;94.70
1590;DHT22;788;48.720;9.158;2022-09-03T15:42:29;26.10;95.50
1590;DHT22;788;48.720;9.158;2022-09-03T15:45:02;26.10;95.20
1590;DHT22;788;48.720;9.158;2022-09-03T15:47:35;26.40;95.90
1590;DHT22;788;48.720;9.158;2022-09-03T15:50:15;26.70;95.60
1590;DHT22;788;48.720;9.158;2022-09-03T15:52:55;27.20;94.60
1590;DHT22;788;48.720;9.158;2022-09-03T15:55:31;26.90;92.90
1590;DHT22;788;48.720;9.158;2022-09-03T15:58:04;26.90;93.90
1590;DHT22;788;48.720;9.158;2022-09-03T16:00:48;26.90;94.20
1590;DHT22;788;48.720;9.158;2022-09-03T16:03:21;26.90;94.10
1590;DHT22;788;48.720;9.158;2022-09-03T16:06:01;26.80;94.10
1590;DHT22;788;48.720;9.158;2022-09-03T16:08:38;26.90;94.70
1590;DHT22;788;48.720;9.158;2022-09-03T16:11:12;26.80;94.30
1590;DHT22;788;48.720;9.158;2022-09-03T16:13:57;26.50;94.80
1590;DHT22;788;48.720;9.158;2022-09-03T16:16:28;26.10;95.10
1590;DHT22;788;48.720;9.158;2022-09-03T16:19:02;25.90;95.80
1590;DHT22;788;48.720;9.158;2022-09-03T16:21:36;25.60;96.20
1590;DHT22;788;48.720;9.158;2022-09-03T16:24:11;25.30;96.90
1590;DHT22;788;48.720;9.158;2022-09-03T16:26:49;24.90;97.60
1590;DHT22;788;48.720;9.158;2022-09-03T16:29:24;24.70;98.40
1590;DHT22;788;48.720;9.158;2022-09-03T16:32:04;24.40;98.70
1590;DHT22;788;48.720;9.158;2022-09-03T16:34:39;24.20;99.20
1590;DHT22;788;48.720;9.158;2022-09-03T16:37:19;24.10;99.60
1590;DHT22;788;48.720;9.158;2022-09-03T16:39:54;23.90;99.80
1590;DHT22;788;48.720;9.158;2022-09-03T16:42:27;23.70;99.90
1590;DHT22;788;48.720;9.158;2022-09-03T16:45:05;23.60;99.90
1590;DHT22;788;48.720;9.158;2022-09-03T16:47:45;23.50;99.90
1590;DHT22;788;48.720;9.158;2022-09-03T16:50:25;23.30;99.90
1590;DHT22;788;48.720;9.158;2022-09-03T16:53:03;23.20;99.90
1590;DHT22;788;48.720;9.158;2022-09-03T16:55:54;23.20;99.90
1590;DHT22;788;48.720;9.158;2022-09-03T16:58:29;23.20;99.90
1590;DHT22;788;48.720;9.158;2022-09-03T17:01:10;23.20;99.90
1590;DHT22;788;48.720;9.158;2022-09-03T17:03:55;23.30;99.90
1590;DHT22;788;48.720;9.158;2022-09-03T17:06:39;23.60;99.90
1590;DHT22;788;48.720;9.158;2022-09-03T17:09:22;24.00;99.90
1590;DHT22;788;48.720;9.158;2022-09-03T17:11:58;24.40;99.90
1590;DHT22;788;48.720;9.158;2022-09-03T17:15:00;24.90;99.90
1590;DHT22;788;48.720;9.158;2022-09-03T17:17:43;25.20;98.40
1590;DHT22;788;48.720;9.158;2022-09-03T17:20:35;25.50;98.20
1590;DHT22;788;48.720;9.158;2022-09-03T17:23:24;25.60;98.50
1590;DHT22;788;48.720;9.158;2022-09-03T17:26:01;25.70;98.30
1590;DHT22;788;48.720;9.158;2022-09-03T17:28:46;26.00;97.60
1590;DHT22;788;48.720;9.158;2022-09-03T17:31:20;26.30;97.00
1590;DHT22;788;48.720;9.158;2022-09-03T17:34:00;26.50;96.50
1590;DHT22;788;48.720;9.158;2022-09-03T17:36:29;26.50;96.10
1590;DHT22;788;48.720;9.158;2022-09-03T17:39:33;26.40;95.80
1590;DHT22;788;48.720;9.158;2022-09-03T17:42:13;26.10;96.20
1590;DHT22;788;48.720;9.158;2022-09-03T17:44:49;25.70;96.80
1590;DHT22;788;48.720;9.158;2022-09-03T17:50:24;24.90;98.10
1590;DHT22;788;48.720;9.158;2022-09-03T17:52:54;24.60;98.90
1590;DHT22;788;48.720;9.158;2022-09-03T17:55:28;24.30;99.60
1590;DHT22;788;48.720;9.158;2022-09-03T17:58:07;23.90;99.90
1590;DHT22;788;48.720;9.158;2022-09-03T18:00:41;23.50;99.90
1590;DHT22;788;48.720;9.158;2022-09-03T18:03:15;23.30;99.90
1590;DHT22;788;48.720;9.158;2022-09-03T18:05:46;23.00;99.90
1590;DHT22;788;48.720;9.158;2022-09-03T18:08:18;22.70;99.90
1590;DHT22;788;48.720;9.158;2022-09-03T18:10:53;22.60;99.90
1590;DHT22;788;48.720;9.158;2022-09-03T18:13:38;22.30;99.90
1590;DHT22;788;48.720;9.158;2022-09-03T18:16:11;22.10;99.90
1590;DHT22;788;48.720;9.158;2022-09-03T18:18:43;21.90;99.90
1590;DHT22;788;48.720;9.158;2022-09-03T18:21:18;21.70;99.90
1590;DHT22;788;48.720;9.158;2022-09-03T18:24:10;21.60;99.90
1590;DHT22;788;48.720;9.158;2022-09-03T18:27:04;21.40;99.90
1590;DHT22;788;48.720;9.158;2022-09-03T18:29:58;21.20;99.90
1590;DHT22;788;48.720;9.158;2022-09-03T18:32:44;21.10;99.90
1590;DHT22;788;48.720;9.158;2022-09-03T18:35:30;20.90;99.90
1590;DHT22;788;48.720;9.158;2022-09-03T18:38:19;20.80;99.90
1590;DHT22;788;48.720;9.158;2022-09-03T18:41:11;20.70;99.90
1590;DHT22;788;48.720;9.158;2022-09-03T18:44:05;20.60;99.90
1590;DHT22;788;48.720;9.158;2022-09-03T18:47:02;20.40;99.90
1590;DHT22;788;48.720;9.158;2022-09-03T18:49:56;20.30;99.90
1590;DHT22;788;48.720;9.158;2022-09-03T18:52:45;20.20;99.90
1590;DHT22;788;48.720;9.158;2022-09-03T18:55:44;20.10;99.90
1590;DHT22;788;48.720;9.158;2022-09-03T18:58:35;20.00;99.90
1590;DHT22;788;48.720;9.158;2022-09-03T19:01:29;19.90;99.90
1590;DHT22;788;48.720;9.158;2022-09-03T19:04:22;19.80;99.90
1590;DHT22;788;48.720;9.158;2022-09-03T19:07:10;19.70;99.90
1590;DHT22;788;48.720;9.158;2022-09-03T19:10:00;19.70;99.90
1590;DHT22;788;48.720;9.158;2022-09-03T19:13:02;19.60;99.90
1590;DHT22;788;48.720;9.158;2022-09-03T19:15:51;19.50;99.90
1590;DHT22;788;48.720;9.158;2022-09-03T19:19:09;19.40;99.90
1590;DHT22;788;48.720;9.158;2022-09-03T19:22:05;19.40;99.90
1590;DHT22;788;48.720;9.158;2022-09-03T19:24:55;19.30;99.90
1590;DHT22;788;48.720;9.158;2022-09-03T19:27:48;19.30;99.90
1590;DHT22;788;48.720;9.158;2022-09-03T19:30:45;19.20;99.90
1590;DHT22;788;48.720;9.158;2022-09-03T19:33:37;19.20;99.90
1590;DHT22;788;48.720;9.158;2022-09-03T19:36:28;19.10;99.90
1590;DHT22;788;48.720;9.158;2022-09-03T19:39:31;19.00;99.90
1590;DHT22;788;48.720;9.158;2022-09-03T19:42:25;19.00;99.90
1590;DHT22;788;48.720;9.158;2022-09-03T19:45:18;18.90;99.90
1590;DHT22;788;48.720;9.158;2022-09-03T19:48:10;18.90;99.90
1590;DHT22;788;48.720;9.158;2022-09-03T19:51:04;18.90;99.90
1590;DHT22;788;48.720;9.158;2022-09-03T19:53:51;18.80;99.90
1590;DHT22;788;48.720;9.158;2022-09-03T19:56:39;18.80;99.90
1590;DHT22;788;48.720;9.158;2022-09-03T19:59:28;18.70;99.90
1590;DHT22;788;48.720;9.158;2022-09-03T20:02:16;18.70;99.90
1590;DHT22;788;48.720;9.158;2022-09-03T20:05:01;18.60;99.90
1590;DHT22;788;48.720;9.158;2022-09-03T20:07:54;18.60;99.90
1590;DHT22;788;48.720;9.158;2022-09-03T20:10:41;18.50;99.90
1590;DHT22;788;48.720;9.158;2022-09-03T20:13:11;18.50;99.90
1590;DHT22;788;48.720;9.158;2022-09-03T20:15:46;18.40;99.90
1590;DHT22;788;48.720;9.158;2022-09-03T20:18:24;18.40;99.90
1590;DHT22;788;48.720;9.158;2022-09-03T20:20:57;18.30;99.90
1590;DHT22;788;48.720;9.158;2022-09-03T20:23:32;18.30;99.90
1590;DHT22;788;48.720;9.158;2022-09-03T20:26:11;18.30;99.90
1590;DHT22;788;48.720;9.158;2022-09-03T20:29:06;18.20;99.90
1590;DHT22;788;48.720;9.158;2022-09-03T20:31:43;18.20;99.90
1590;DHT22;788;48.720;9.158;2022-09-03T20:34:23;18.20;99.90
1590;DHT22;788;48.720;9.158;2022-09-03T20:36:55;18.20;99.90
1590;DHT22;788;48.720;9.158;2022-09-03T20:39:41;18.10;99.90
1590;DHT22;788;48.720;9.158;2022-09-03T20:42:21;18.10;99.90
1590;DHT22;788;48.720;9.158;2022-09-03T20:44:58;18.10;99.90
1590;DHT22;788;48.720;9.158;2022-09-03T20:47:50;18.00;99.90
1590;DHT22;788;48.720;9.158;2022-09-03T20:50:39;18.00;99.90
1590;DHT22;788;48.720;9.158;2022-09-03T20:53:35;18.00;99.90
1590;DHT22;788;48.720;9.158;2022-09-03T20:56:09;18.00;99.90
1590;DHT22;788;48.720;9.158;2022-09-03T20:58:43;18.00;99.90
1590;DHT22;788;48.720;9.158;2022-09-03T21:01:21;18.00;99.90
1590;DHT22;788;48.720;9.158;2022-09-03T21:03:52;18.00;99.90
1590;DHT22;788;48.720;9.158;2022-09-03T21:06:30;18.00;99.90
1590;DHT22;788;48.720;9.158;2022-09-03T21:09:17;18.10;99.90
1590;DHT22;788;48.720;9.158;2022-09-03T21:11:49;18.10;99.90
1590;DHT22;788;48.720;9.158;2022-09-03T21:14:26;18.20;99.90
1590;DHT22;788;48.720;9.158;2022-09-03T21:17:05;18.20;99.90
1590;DHT22;788;48.720;9.158;2022-09-03T21:19:45;18.20;99.90
1590;DHT22;788;48.720;9.158;2022-09-03T21:22:24;18.30;99.90
1590;DHT22;788;48.720;9.158;2022-09-03T21:24:55;18.30;99.90
1590;DHT22;788;48.720;9.158;2022-09-03T21:27:28;18.40;99.90
1590;DHT22;788;48.720;9.158;2022-09-03T21:30:00;18.30;99.90
1590;DHT22;788;48.720;9.158;2022-09-03T21:32:34;18.40;99.90
1590;DHT22;788;48.720;9.158;2022-09-03T21:35:10;18.40;99.90
1590;DHT22;788;48.720;9.158;2022-09-03T21:37:44;18.50;99.90
1590;DHT22;788;48.720;9.158;2022-09-03T21:40:14;18.50;99.90
1590;DHT22;788;48.720;9.158;2022-09-03T21:42:44;18.50;99.90
1590;DHT22;788;48.720;9.158;2022-09-03T21:45:17;18.50;99.90
1590;DHT22;788;48.720;9.158;2022-09-03T21:47:52;18.60;99.90
1590;DHT22;788;48.720;9.158;2022-09-03T21:50:27;18.50;99.90
1590;DHT22;788;48.720;9.158;2022-09-03T21:52:59;18.60;99.90
1590;DHT22;788;48.720;9.158;2022-09-03T21:58:14;18.60;99.90
1590;DHT22;788;48.720;9.158;2022-09-03T22:00:48;18.60;99.90
1590;DHT22;788;48.720;9.158;2022-09-03T22:03:16;18.60;99.90
1590;DHT22;788;48.720;9.158;2022-09-03T22:05:48;18.50;99.90
1590;DHT22;788;48.720;9.158;2022-09-03T22:08:22;18.50;99.90
1590;DHT22;788;48.720;9.158;2022-09-03T22:10:58;18.50;99.90
1590;DHT22;788;48.720;9.158;2022-09-03T22:13:29;18.40;99.90
1590;DHT22;788;48.720;9.158;2022-09-03T22:16:02;18.40;99.90
1590;DHT22;788;48.720;9.158;2022-09-03T22:18:31;18.40;99.90
1590;DHT22;788;48.720;9.158;2022-09-03T22:21:09;18.30;99.90
1590;DHT22;788;48.720;9.158;2022-09-03T22:23:44;18.20;99.90
1590;DHT22;788;48.720;9.158;2022-09-03T22:26:21;18.10;99.90
1590;DHT22;788;48.720;9.158;2022-09-03T22:28:59;17.90;99.90
1590;DHT22;788;48.720;9.158;2022-09-03T22:31:39;17.80;99.90
1590;DHT22;788;48.720;9.158;2022-09-03T22:34:19;17.70;99.90
1590;DHT22;788;48.720;9.158;2022-09-03T22:36:49;17.60;99.90
1590;DHT22;788;48.720;9.158;2022-09-03T22:39:25;17.70;99.90
1590;DHT22;788;48.720;9.158;2022-09-03T22:42:04;17.60;99.90
1590;DHT22;788;48.720;9.158;2022-09-03T22:44:47;17.60;99.90
1590;DHT22;788;48.720;9.158;2022-09-03T22:47:24;17.70;99.90
1590;DHT22;788;48.720;9.158;2022-09-03T22:50:02;17.60;99.90
1590;DHT22;788;48.720;9.158;2022-09-03T22:52:37;17.50;99.90
1590;DHT22;788;48.720;9.158;2022-09-03T22:55:12;17.50;99.90
1590;DHT22;788;48.720;9.158;2022-09-03T22:57:46;17.50;99.90
1590;DHT22;788;48.720;9.158;2022-09-03T23:00:15;17.40;99.90
1590;DHT22;788;48.720;9.158;2022-09-03T23:02:44;17.40;99.90
1590;DHT22;788;48.720;9.158;2022-09-03T23:05:27;17.40;99.90
1590;DHT22;788;48.720;9.158;2022-09-03T23:08:02;17.40;99.90
1590;DHT22;788;48.720;9.158;2022-09-03T23:10:33;17.40;99.90
1590;DHT22;788;48.720;9.158;2022-09-03T23:13:05;17.30;99.90
1590;DHT22;788;48.720;9.158;2022-09-03T23:15:36;17.30;99.90
1590;DHT22;788;48.720;9.158;2022-09-03T23:18:07;17.20;99.90
1590;DHT22;788;48.720;9.158;2022-09-03T23:20:38;17.20;99.90
1590;DHT22;788;48.720;9.158;2022-09-03T23:23:13;17.20;99.90
1590;DHT22;788;48.720;9.158;2022-09-03T23:25:44;17.20;99.90
1590;DHT22;788;48.720;9.158;2022-09-03T23:28:17;17.20;99.90
1590;DHT22;788;48.720;9.158;2022-09-03T23:30:44;17.20;99.90
1590;DHT22;788;48.720;9.158;2022-09-03T23:33:11;17.20;99.90
1590;DHT22;788;48.720;9.158;2022-09-03T23:35:45;17.20;99.90
1590;DHT22;788;48.720;9.158;2022-09-03T23:38:22;17.10;99.90
1590;DHT22;788;48.720;9.158;2022-09-03T23:40:53;17.10;99.90
1590;DHT22;788;48.720;9.158;2022-09-03T23:43:50;17.10;99.90
1590;DHT22;788;48.720;9.158;2022-09-03T23:46:25;17.10;99.90
1590;DHT22;788;48.720;9.158;2022-09-03T23:51:57;17.00;99.90
1590;DHT22;788;48.720;9.158;2022-09-03T23:54:36;17.00;99.90
1590;DHT22;788;48.720;9.158;2022-09-03T23:57:13;17.00;99.90
